sensor_id;sensor_type;location;lat;lon;timestamp;P1;durP1;ratioP1;P2;durP2;ratioP2
38226;SDS011;24026;49.446;8.576;2023-03-01T00:00:31;121.05;;;107.95;;
38226;SDS011;24026;49.446;8.576;2023-03-01T00:02:51;121.38;;;108.25;;
38226;SDS011;24026;49.446;8.576;2023-03-01T00:05:12;120.40;;;107.30;;
38226;SDS011;24026;49.446;8.576;2023-03-01T00:07:32;120.95;;;107.68;;
38226;SDS011;24026;49.446;8.576;2023-03-01T00:09:53;121.88;;;108.68;;
38226;SDS011;24026;49.446;8.576;2023-03-01T00:12:14;119.30;;;106.28;;
38226;SDS011;24026;49.446;8.576;2023-03-01T00:14:35;121.40;;;108.30;;
38226;SDS011;24026;49.446;8.576;2023-03-01T00:16:55;120.82;;;107.72;;
38226;SDS011;24026;49.446;8.576;2023-03-01T00:19:16;120.03;;;106.93;;
38226;SDS011;24026;49.446;8.576;2023-03-01T00:21:39;120.47;;;107.38;;
38226;SDS011;24026;49.446;8.576;2023-03-01T00:23:59;120.50;;;107.47;;
38226;SDS011;24026;49.446;8.576;2023-03-01T00:26:21;119.47;;;106.38;;
38226;SDS011;24026;49.446;8.576;2023-03-01T00:28:43;120.55;;;107.35;;
38226;SDS011;24026;49.446;8.576;2023-03-01T00:31:05;117.93;;;104.95;;
38226;SDS011;24026;49.446;8.576;2023-03-01T00:33:26;118.07;;;105.07;;
38226;SDS011;24026;49.446;8.576;2023-03-01T00:35:47;120.28;;;106.90;;
38226;SDS011;24026;49.446;8.576;2023-03-01T00:38:07;118.03;;;105.00;;
38226;SDS011;24026;49.446;8.576;2023-03-01T00:40:28;120.90;;;107.80;;
38226;SDS011;24026;49.446;8.576;2023-03-01T00:42:49;121.45;;;108.25;;
38226;SDS011;24026;49.446;8.576;2023-03-01T00:45:09;117.18;;;104.28;;
38226;SDS011;24026;49.446;8.576;2023-03-01T00:47:30;117.63;;;104.65;;
38226;SDS011;24026;49.446;8.576;2023-03-01T00:49:50;120.85;;;107.55;;
38226;SDS011;24026;49.446;8.576;2023-03-01T00:52:10;118.85;;;105.78;;
38226;SDS011;24026;49.446;8.576;2023-03-01T00:54:31;121.28;;;108.07;;
38226;SDS011;24026;49.446;8.576;2023-03-01T00:56:51;118.68;;;105.57;;
38226;SDS011;24026;49.446;8.576;2023-03-01T00:59:12;120.68;;;107.55;;
38226;SDS011;24026;49.446;8.576;2023-03-01T01:01:32;120.00;;;106.85;;
38226;SDS011;24026;49.446;8.576;2023-03-01T01:03:54;118.30;;;105.20;;
38226;SDS011;24026;49.446;8.576;2023-03-01T01:06:20;120.75;;;107.70;;
38226;SDS011;24026;49.446;8.576;2023-03-01T01:08:42;119.50;;;106.55;;
38226;SDS011;24026;49.446;8.576;2023-03-01T01:11:02;122.32;;;109.03;;
38226;SDS011;24026;49.446;8.576;2023-03-01T01:13:23;119.22;;;106.20;;
38226;SDS011;24026;49.446;8.576;2023-03-01T01:15:43;118.95;;;105.88;;
38226;SDS011;24026;49.446;8.576;2023-03-01T01:18:03;120.30;;;107.10;;
38226;SDS011;24026;49.446;8.576;2023-03-01T01:20:24;119.97;;;106.90;;
38226;SDS011;24026;49.446;8.576;2023-03-01T01:22:44;119.45;;;106.35;;
38226;SDS011;24026;49.446;8.576;2023-03-01T01:25:05;118.70;;;105.70;;
38226;SDS011;24026;49.446;8.576;2023-03-01T01:27:25;119.35;;;106.35;;
38226;SDS011;24026;49.446;8.576;2023-03-01T01:29:46;117.65;;;103.60;;
38226;SDS011;24026;49.446;8.576;2023-03-01T01:32:06;118.45;;;103.70;;
38226;SDS011;24026;49.446;8.576;2023-03-01T01:34:27;121.13;;;107.82;;
38226;SDS011;24026;49.446;8.576;2023-03-01T01:36:48;120.38;;;107.30;;
38226;SDS011;24026;49.446;8.576;2023-03-01T01:39:09;119.82;;;106.82;;
38226;SDS011;24026;49.446;8.576;2023-03-01T01:41:33;119.50;;;106.40;;
38226;SDS011;24026;49.446;8.576;2023-03-01T01:46:53;118.22;;;105.15;;
38226;SDS011;24026;49.446;8.576;2023-03-01T01:52:00;119.85;;;106.75;;
38226;SDS011;24026;49.446;8.576;2023-03-01T01:54:35;117.82;;;104.63;;
38226;SDS011;24026;49.446;8.576;2023-03-01T01:57:01;118.90;;;105.80;;
38226;SDS011;24026;49.446;8.576;2023-03-01T01:59:26;115.80;;;102.93;;
38226;SDS011;24026;49.446;8.576;2023-03-01T02:01:51;119.68;;;106.60;;
38226;SDS011;24026;49.446;8.576;2023-03-01T02:04:12;117.53;;;104.03;;
38226;SDS011;24026;49.446;8.576;2023-03-01T02:06:37;119.55;;;106.40;;
38226;SDS011;24026;49.446;8.576;2023-03-01T02:09:11;119.63;;;106.63;;
38226;SDS011;24026;49.446;8.576;2023-03-01T02:11:34;118.50;;;105.13;;
38226;SDS011;24026;49.446;8.576;2023-03-01T02:13:57;117.32;;;104.30;;
38226;SDS011;24026;49.446;8.576;2023-03-01T02:16:18;118.85;;;105.75;;
38226;SDS011;24026;49.446;8.576;2023-03-01T02:18:40;118.03;;;103.57;;
38226;SDS011;24026;49.446;8.576;2023-03-01T02:23:41;117.55;;;104.53;;
38226;SDS011;24026;49.446;8.576;2023-03-01T02:26:11;119.93;;;106.88;;
38226;SDS011;24026;49.446;8.576;2023-03-01T02:28:40;118.13;;;105.05;;
38226;SDS011;24026;49.446;8.576;2023-03-01T02:31:05;119.47;;;106.38;;
38226;SDS011;24026;49.446;8.576;2023-03-01T02:33:45;120.43;;;107.35;;
38226;SDS011;24026;49.446;8.576;2023-03-01T02:36:09;120.13;;;107.07;;
38226;SDS011;24026;49.446;8.576;2023-03-01T02:38:33;117.30;;;104.38;;
38226;SDS011;24026;49.446;8.576;2023-03-01T02:40:54;120.07;;;106.97;;
38226;SDS011;24026;49.446;8.576;2023-03-01T02:43:16;118.25;;;105.22;;
38226;SDS011;24026;49.446;8.576;2023-03-01T02:45:43;119.45;;;106.35;;
38226;SDS011;24026;49.446;8.576;2023-03-01T02:48:08;117.88;;;103.82;;
38226;SDS011;24026;49.446;8.576;2023-03-01T02:53:04;120.00;;;106.80;;
38226;SDS011;24026;49.446;8.576;2023-03-01T02:55:32;117.93;;;104.95;;
38226;SDS011;24026;49.446;8.576;2023-03-01T02:57:52;118.20;;;105.07;;
38226;SDS011;24026;49.446;8.576;2023-03-01T03:00:18;118.78;;;105.80;;
38226;SDS011;24026;49.446;8.576;2023-03-01T03:02:45;119.75;;;106.60;;
38226;SDS011;24026;49.446;8.576;2023-03-01T03:05:10;117.18;;;103.30;;
38226;SDS011;24026;49.446;8.576;2023-03-01T03:07:36;118.18;;;105.25;;
38226;SDS011;24026;49.446;8.576;2023-03-01T03:09:57;118.95;;;105.85;;
38226;SDS011;24026;49.446;8.576;2023-03-01T03:12:18;117.85;;;104.95;;
38226;SDS011;24026;49.446;8.576;2023-03-01T03:14:38;116.32;;;103.22;;
38226;SDS011;24026;49.446;8.576;2023-03-01T03:16:58;118.68;;;105.60;;
38226;SDS011;24026;49.446;8.576;2023-03-01T03:19:26;116.28;;;103.32;;
38226;SDS011;24026;49.446;8.576;2023-03-01T03:21:46;120.60;;;107.40;;
38226;SDS011;24026;49.446;8.576;2023-03-01T03:24:07;116.78;;;102.38;;
38226;SDS011;24026;49.446;8.576;2023-03-01T03:26:28;118.88;;;105.43;;
38226;SDS011;24026;49.446;8.576;2023-03-01T03:28:48;119.80;;;106.70;;
38226;SDS011;24026;49.446;8.576;2023-03-01T03:31:08;118.15;;;105.03;;
38226;SDS011;24026;49.446;8.576;2023-03-01T03:33:32;118.97;;;106.00;;
38226;SDS011;24026;49.446;8.576;2023-03-01T03:35:53;117.57;;;103.70;;
38226;SDS011;24026;49.446;8.576;2023-03-01T03:38:14;119.50;;;106.47;;
38226;SDS011;24026;49.446;8.576;2023-03-01T03:40:36;116.78;;;103.88;;
38226;SDS011;24026;49.446;8.576;2023-03-01T03:42:59;119.50;;;106.40;;
38226;SDS011;24026;49.446;8.576;2023-03-01T03:45:19;117.80;;;104.90;;
38226;SDS011;24026;49.446;8.576;2023-03-01T03:47:40;119.40;;;106.25;;
38226;SDS011;24026;49.446;8.576;2023-03-01T03:50:00;119.40;;;106.28;;
38226;SDS011;24026;49.446;8.576;2023-03-01T03:52:20;118.28;;;105.22;;
38226;SDS011;24026;49.446;8.576;2023-03-01T03:54:41;119.00;;;105.95;;
38226;SDS011;24026;49.446;8.576;2023-03-01T03:57:01;118.90;;;105.90;;
38226;SDS011;24026;49.446;8.576;2023-03-01T03:59:21;120.45;;;107.32;;
38226;SDS011;24026;49.446;8.576;2023-03-01T04:01:42;116.88;;;104.00;;
38226;SDS011;24026;49.446;8.576;2023-03-01T04:04:04;120.15;;;106.95;;
38226;SDS011;24026;49.446;8.576;2023-03-01T04:06:24;118.18;;;105.15;;
38226;SDS011;24026;49.446;8.576;2023-03-01T04:08:45;118.47;;;105.45;;
38226;SDS011;24026;49.446;8.576;2023-03-01T04:11:05;118.22;;;105.20;;
38226;SDS011;24026;49.446;8.576;2023-03-01T04:13:44;117.80;;;104.55;;
38226;SDS011;24026;49.446;8.576;2023-03-01T04:16:05;119.75;;;106.75;;
38226;SDS011;24026;49.446;8.576;2023-03-01T04:18:25;116.43;;;102.80;;
38226;SDS011;24026;49.446;8.576;2023-03-01T04:20:46;120.50;;;107.32;;
38226;SDS011;24026;49.446;8.576;2023-03-01T04:23:08;119.20;;;106.22;;
38226;SDS011;24026;49.446;8.576;2023-03-01T04:25:32;117.78;;;104.78;;
38226;SDS011;24026;49.446;8.576;2023-03-01T04:27:53;120.32;;;107.18;;
38226;SDS011;24026;49.446;8.576;2023-03-01T04:30:13;117.97;;;105.07;;
38226;SDS011;24026;49.446;8.576;2023-03-01T04:32:34;117.55;;;103.07;;
38226;SDS011;24026;49.446;8.576;2023-03-01T04:34:55;120.65;;;107.43;;
38226;SDS011;24026;49.446;8.576;2023-03-01T04:37:15;120.15;;;107.07;;
38226;SDS011;24026;49.446;8.576;2023-03-01T04:39:36;117.68;;;104.57;;
38226;SDS011;24026;49.446;8.576;2023-03-01T04:42:05;119.05;;;106.05;;
38226;SDS011;24026;49.446;8.576;2023-03-01T04:44:25;117.85;;;104.50;;
38226;SDS011;24026;49.446;8.576;2023-03-01T04:46:48;117.45;;;102.95;;
38226;SDS011;24026;49.446;8.576;2023-03-01T04:49:09;118.20;;;105.32;;
38226;SDS011;24026;49.446;8.576;2023-03-01T04:51:29;118.35;;;105.35;;
38226;SDS011;24026;49.446;8.576;2023-03-01T04:53:52;116.72;;;103.82;;
38226;SDS011;24026;49.446;8.576;2023-03-01T04:56:13;118.93;;;105.88;;
38226;SDS011;24026;49.446;8.576;2023-03-01T04:58:33;119.55;;;106.45;;
38226;SDS011;24026;49.446;8.576;2023-03-01T05:00:54;117.30;;;104.40;;
38226;SDS011;24026;49.446;8.576;2023-03-01T05:03:15;119.57;;;106.53;;
38226;SDS011;24026;49.446;8.576;2023-03-01T05:05:38;118.78;;;105.57;;
38226;SDS011;24026;49.446;8.576;2023-03-01T05:07:59;120.30;;;107.20;;
38226;SDS011;24026;49.446;8.576;2023-03-01T05:10:22;118.32;;;104.68;;
38226;SDS011;24026;49.446;8.576;2023-03-01T05:12:43;118.57;;;105.13;;
38226;SDS011;24026;49.446;8.576;2023-03-01T05:15:04;119.75;;;106.65;;
38226;SDS011;24026;49.446;8.576;2023-03-01T05:17:26;120.10;;;106.90;;
38226;SDS011;24026;49.446;8.576;2023-03-01T05:19:47;121.93;;;108.72;;
38226;SDS011;24026;49.446;8.576;2023-03-01T05:22:07;119.97;;;106.82;;
38226;SDS011;24026;49.446;8.576;2023-03-01T05:24:28;122.25;;;109.15;;
38226;SDS011;24026;49.446;8.576;2023-03-01T05:26:53;118.82;;;105.82;;
38226;SDS011;24026;49.446;8.576;2023-03-01T05:29:14;122.43;;;109.35;;
38226;SDS011;24026;49.446;8.576;2023-03-01T05:31:34;122.90;;;109.45;;
38226;SDS011;24026;49.446;8.576;2023-03-01T05:33:54;125.05;;;111.55;;
38226;SDS011;24026;49.446;8.576;2023-03-01T05:36:15;120.97;;;106.38;;
38226;SDS011;24026;49.446;8.576;2023-03-01T05:38:35;124.70;;;111.32;;
38226;SDS011;24026;49.446;8.576;2023-03-01T05:40:56;124.05;;;110.85;;
38226;SDS011;24026;49.446;8.576;2023-03-01T05:43:16;122.93;;;109.60;;
38226;SDS011;24026;49.446;8.576;2023-03-01T05:45:38;123.40;;;110.18;;
38226;SDS011;24026;49.446;8.576;2023-03-01T05:47:59;125.20;;;111.82;;
38226;SDS011;24026;49.446;8.576;2023-03-01T05:50:20;125.65;;;112.05;;
38226;SDS011;24026;49.446;8.576;2023-03-01T05:52:43;127.18;;;113.78;;
38226;SDS011;24026;49.446;8.576;2023-03-01T05:55:08;124.70;;;111.32;;
38226;SDS011;24026;49.446;8.576;2023-03-01T05:57:29;125.53;;;112.00;;
38226;SDS011;24026;49.446;8.576;2023-03-01T05:59:49;127.25;;;113.72;;
38226;SDS011;24026;49.446;8.576;2023-03-01T06:02:10;128.32;;;114.93;;
38226;SDS011;24026;49.446;8.576;2023-03-01T06:04:30;125.25;;;112.00;;
38226;SDS011;24026;49.446;8.576;2023-03-01T06:06:50;129.18;;;115.60;;
38226;SDS011;24026;49.446;8.576;2023-03-01T06:09:11;124.03;;;110.82;;
38226;SDS011;24026;49.446;8.576;2023-03-01T06:11:33;128.38;;;114.97;;
38226;SDS011;24026;49.446;8.576;2023-03-01T06:13:54;129.70;;;116.10;;
38226;SDS011;24026;49.446;8.576;2023-03-01T06:16:14;128.80;;;115.30;;
38226;SDS011;24026;49.446;8.576;2023-03-01T06:18:34;130.20;;;116.53;;
38226;SDS011;24026;49.446;8.576;2023-03-01T06:20:56;129.95;;;116.32;;
38226;SDS011;24026;49.446;8.576;2023-03-01T06:23:16;125.75;;;112.35;;
38226;SDS011;24026;49.446;8.576;2023-03-01T06:25:37;131.40;;;117.68;;
38226;SDS011;24026;49.446;8.576;2023-03-01T06:27:57;129.52;;;115.82;;
38226;SDS011;24026;49.446;8.576;2023-03-01T06:30:18;127.80;;;114.20;;
38226;SDS011;24026;49.446;8.576;2023-03-01T06:32:40;133.07;;;119.07;;
38226;SDS011;24026;49.446;8.576;2023-03-01T06:35:04;131.38;;;117.38;;
38226;SDS011;24026;49.446;8.576;2023-03-01T06:37:25;132.05;;;117.22;;
38226;SDS011;24026;49.446;8.576;2023-03-01T06:39:46;133.27;;;119.13;;
38226;SDS011;24026;49.446;8.576;2023-03-01T06:42:07;133.68;;;119.60;;
38226;SDS011;24026;49.446;8.576;2023-03-01T06:44:28;134.63;;;120.22;;
38226;SDS011;24026;49.446;8.576;2023-03-01T06:46:48;136.50;;;121.72;;
38226;SDS011;24026;49.446;8.576;2023-03-01T06:49:09;138.93;;;123.78;;
38226;SDS011;24026;49.446;8.576;2023-03-01T06:51:29;133.52;;;118.90;;
38226;SDS011;24026;49.446;8.576;2023-03-01T06:53:50;138.57;;;123.90;;
38226;SDS011;24026;49.446;8.576;2023-03-01T06:56:10;134.18;;;119.45;;
38226;SDS011;24026;49.446;8.576;2023-03-01T06:58:30;139.75;;;124.88;;
38226;SDS011;24026;49.446;8.576;2023-03-01T07:00:51;140.75;;;125.50;;
38226;SDS011;24026;49.446;8.576;2023-03-01T07:03:11;139.13;;;122.90;;
38226;SDS011;24026;49.446;8.576;2023-03-01T07:05:32;143.02;;;127.80;;
38226;SDS011;24026;49.446;8.576;2023-03-01T07:07:53;142.00;;;126.40;;
38226;SDS011;24026;49.446;8.576;2023-03-01T07:10:15;137.20;;;122.38;;
38226;SDS011;24026;49.446;8.576;2023-03-01T07:12:35;140.82;;;125.85;;
38226;SDS011;24026;49.446;8.576;2023-03-01T07:14:56;138.68;;;122.65;;
38226;SDS011;24026;49.446;8.576;2023-03-01T07:17:16;143.18;;;127.85;;
38226;SDS011;24026;49.446;8.576;2023-03-01T07:19:36;141.07;;;125.97;;
38226;SDS011;24026;49.446;8.576;2023-03-01T07:21:57;143.80;;;128.50;;
38226;SDS011;24026;49.446;8.576;2023-03-01T07:24:17;151.27;;;130.18;;
38226;SDS011;24026;49.446;8.576;2023-03-01T07:26:38;143.00;;;127.63;;
38226;SDS011;24026;49.446;8.576;2023-03-01T07:28:59;146.82;;;131.10;;
38226;SDS011;24026;49.446;8.576;2023-03-01T07:31:20;146.57;;;130.18;;
38226;SDS011;24026;49.446;8.576;2023-03-01T07:33:40;146.60;;;130.77;;
38226;SDS011;24026;49.446;8.576;2023-03-01T07:36:01;160.43;;;137.10;;
38226;SDS011;24026;49.446;8.576;2023-03-01T07:38:23;153.57;;;136.18;;
38226;SDS011;24026;49.446;8.576;2023-03-01T07:40:43;161.02;;;134.07;;
38226;SDS011;24026;49.446;8.576;2023-03-01T07:43:03;167.90;;;136.55;;
38226;SDS011;24026;49.446;8.576;2023-03-01T07:45:24;161.23;;;136.13;;
38226;SDS011;24026;49.446;8.576;2023-03-01T07:47:45;159.90;;;137.25;;
38226;SDS011;24026;49.446;8.576;2023-03-01T07:50:06;164.52;;;134.07;;
38226;SDS011;24026;49.446;8.576;2023-03-01T07:52:26;166.13;;;135.55;;
38226;SDS011;24026;49.446;8.576;2023-03-01T07:54:47;167.30;;;138.48;;
38226;SDS011;24026;49.446;8.576;2023-03-01T07:57:07;163.68;;;139.38;;
38226;SDS011;24026;49.446;8.576;2023-03-01T07:59:28;174.82;;;141.02;;
38226;SDS011;24026;49.446;8.576;2023-03-01T08:01:49;174.30;;;138.75;;
38226;SDS011;24026;49.446;8.576;2023-03-01T08:04:10;174.30;;;138.57;;
38226;SDS011;24026;49.446;8.576;2023-03-01T08:06:30;181.50;;;141.13;;
38226;SDS011;24026;49.446;8.576;2023-03-01T08:08:50;183.90;;;140.43;;
38226;SDS011;24026;49.446;8.576;2023-03-01T08:11:11;173.57;;;142.05;;
38226;SDS011;24026;49.446;8.576;2023-03-01T08:13:33;173.50;;;142.38;;
38226;SDS011;24026;49.446;8.576;2023-03-01T08:15:54;165.50;;;141.73;;
38226;SDS011;24026;49.446;8.576;2023-03-01T08:18:20;171.10;;;139.50;;
38226;SDS011;24026;49.446;8.576;2023-03-01T08:20:41;172.18;;;139.45;;
38226;SDS011;24026;49.446;8.576;2023-03-01T08:23:02;166.02;;;138.65;;
38226;SDS011;24026;49.446;8.576;2023-03-01T08:25:22;163.80;;;139.70;;
38226;SDS011;24026;49.446;8.576;2023-03-01T08:27:42;172.50;;;142.18;;
38226;SDS011;24026;49.446;8.576;2023-03-01T08:30:03;165.07;;;140.18;;
38226;SDS011;24026;49.446;8.576;2023-03-01T08:32:25;166.95;;;140.45;;
38226;SDS011;24026;49.446;8.576;2023-03-01T08:34:48;167.27;;;138.65;;
38226;SDS011;24026;49.446;8.576;2023-03-01T08:37:08;170.48;;;140.32;;
38226;SDS011;24026;49.446;8.576;2023-03-01T08:39:29;171.52;;;140.38;;
38226;SDS011;24026;49.446;8.576;2023-03-01T08:41:50;163.93;;;137.63;;
38226;SDS011;24026;49.446;8.576;2023-03-01T08:44:11;173.65;;;141.88;;
38226;SDS011;24026;49.446;8.576;2023-03-01T08:46:34;171.15;;;144.77;;
38226;SDS011;24026;49.446;8.576;2023-03-01T08:48:56;174.40;;;142.88;;
38226;SDS011;24026;49.446;8.576;2023-03-01T08:51:18;162.02;;;140.75;;
38226;SDS011;24026;49.446;8.576;2023-03-01T08:53:39;175.45;;;142.23;;
38226;SDS011;24026;49.446;8.576;2023-03-01T08:56:00;174.52;;;143.02;;
38226;SDS011;24026;49.446;8.576;2023-03-01T08:58:22;179.65;;;145.50;;
38226;SDS011;24026;49.446;8.576;2023-03-01T09:00:42;181.95;;;149.57;;
38226;SDS011;24026;49.446;8.576;2023-03-01T09:03:03;194.35;;;152.45;;
38226;SDS011;24026;49.446;8.576;2023-03-01T09:05:24;194.50;;;153.07;;
38226;SDS011;24026;49.446;8.576;2023-03-01T09:07:44;195.65;;;152.13;;
38226;SDS011;24026;49.446;8.576;2023-03-01T09:10:05;204.25;;;155.63;;
38226;SDS011;24026;49.446;8.576;2023-03-01T09:12:26;186.55;;;152.73;;
38226;SDS011;24026;49.446;8.576;2023-03-01T09:14:46;196.07;;;154.55;;
38226;SDS011;24026;49.446;8.576;2023-03-01T09:17:06;199.00;;;152.95;;
38226;SDS011;24026;49.446;8.576;2023-03-01T09:19:27;194.05;;;152.32;;
38226;SDS011;24026;49.446;8.576;2023-03-01T09:21:47;194.50;;;154.55;;
38226;SDS011;24026;49.446;8.576;2023-03-01T09:24:14;189.43;;;154.50;;
38226;SDS011;24026;49.446;8.576;2023-03-01T09:26:34;186.07;;;153.75;;
38226;SDS011;24026;49.446;8.576;2023-03-01T09:28:55;191.27;;;154.63;;
38226;SDS011;24026;49.446;8.576;2023-03-01T09:31:17;182.43;;;155.93;;
38226;SDS011;24026;49.446;8.576;2023-03-01T09:33:39;193.15;;;155.95;;
38226;SDS011;24026;49.446;8.576;2023-03-01T09:36:01;192.88;;;153.68;;
38226;SDS011;24026;49.446;8.576;2023-03-01T09:38:24;193.38;;;156.05;;
38226;SDS011;24026;49.446;8.576;2023-03-01T09:40:45;182.80;;;153.75;;
38226;SDS011;24026;49.446;8.576;2023-03-01T09:43:07;185.10;;;154.27;;
38226;SDS011;24026;49.446;8.576;2023-03-01T09:45:37;194.98;;;155.45;;
38226;SDS011;24026;49.446;8.576;2023-03-01T09:48:01;184.23;;;156.05;;
38226;SDS011;24026;49.446;8.576;2023-03-01T09:50:31;193.82;;;156.45;;
38226;SDS011;24026;49.446;8.576;2023-03-01T09:55:36;184.90;;;155.65;;
38226;SDS011;24026;49.446;8.576;2023-03-01T10:00:44;189.10;;;161.77;;
38226;SDS011;24026;49.446;8.576;2023-03-01T10:03:26;193.15;;;156.65;;
38226;SDS011;24026;49.446;8.576;2023-03-01T10:05:59;191.82;;;160.18;;
38226;SDS011;24026;49.446;8.576;2023-03-01T10:08:34;177.52;;;156.13;;
38226;SDS011;24026;49.446;8.576;2023-03-01T10:11:02;182.32;;;156.07;;
38226;SDS011;24026;49.446;8.576;2023-03-01T10:15:54;189.80;;;157.70;;
38226;SDS011;24026;49.446;8.576;2023-03-01T10:18:22;187.50;;;157.25;;
38226;SDS011;24026;49.446;8.576;2023-03-01T10:21:01;183.90;;;157.87;;
38226;SDS011;24026;49.446;8.576;2023-03-01T10:25:47;192.48;;;153.82;;
38226;SDS011;24026;49.446;8.576;2023-03-01T10:28:17;176.15;;;152.32;;
38226;SDS011;24026;49.446;8.576;2023-03-01T10:30:44;176.82;;;151.18;;
38226;SDS011;24026;49.446;8.576;2023-03-01T10:35:40;186.23;;;151.55;;
38226;SDS011;24026;49.446;8.576;2023-03-01T10:38:05;181.25;;;151.05;;
38226;SDS011;24026;49.446;8.576;2023-03-01T10:40:28;198.32;;;153.32;;
38226;SDS011;24026;49.446;8.576;2023-03-01T10:42:48;204.50;;;151.23;;
38226;SDS011;24026;49.446;8.576;2023-03-01T10:45:17;200.77;;;153.18;;
38226;SDS011;24026;49.446;8.576;2023-03-01T10:47:47;209.70;;;153.95;;
38226;SDS011;24026;49.446;8.576;2023-03-01T10:50:23;221.85;;;152.98;;
38226;SDS011;24026;49.446;8.576;2023-03-01T10:52:43;228.32;;;155.82;;
38226;SDS011;24026;49.446;8.576;2023-03-01T10:55:23;230.82;;;156.50;;
38226;SDS011;24026;49.446;8.576;2023-03-01T10:57:47;231.27;;;158.20;;
38226;SDS011;24026;49.446;8.576;2023-03-01T11:00:21;228.98;;;157.93;;
38226;SDS011;24026;49.446;8.576;2023-03-01T11:02:50;215.93;;;155.35;;
38226;SDS011;24026;49.446;8.576;2023-03-01T11:05:23;217.73;;;155.30;;
38226;SDS011;24026;49.446;8.576;2023-03-01T11:07:57;216.68;;;152.82;;
38226;SDS011;24026;49.446;8.576;2023-03-01T11:10:23;209.40;;;152.85;;
38226;SDS011;24026;49.446;8.576;2023-03-01T11:12:45;207.55;;;152.20;;
38226;SDS011;24026;49.446;8.576;2023-03-01T11:15:08;212.05;;;152.32;;
38226;SDS011;24026;49.446;8.576;2023-03-01T11:17:47;209.25;;;152.20;;
38226;SDS011;24026;49.446;8.576;2023-03-01T11:24:55;204.57;;;149.50;;
38226;SDS011;24026;49.446;8.576;2023-03-01T11:29:48;202.18;;;150.15;;
38226;SDS011;24026;49.446;8.576;2023-03-01T11:32:14;195.15;;;151.93;;
38226;SDS011;24026;49.446;8.576;2023-03-01T11:34:43;197.50;;;154.85;;
38226;SDS011;24026;49.446;8.576;2023-03-01T11:37:19;195.20;;;152.93;;
38226;SDS011;24026;49.446;8.576;2023-03-01T11:40:02;195.90;;;153.85;;
38226;SDS011;24026;49.446;8.576;2023-03-01T11:42:28;185.13;;;151.30;;
38226;SDS011;24026;49.446;8.576;2023-03-01T11:44:59;192.50;;;151.82;;
38226;SDS011;24026;49.446;8.576;2023-03-01T11:58:49;192.98;;;148.10;;
38226;SDS011;24026;49.446;8.576;2023-03-01T12:09:07;180.45;;;145.70;;
38226;SDS011;24026;49.446;8.576;2023-03-01T12:11:51;188.20;;;146.05;;
38226;SDS011;24026;49.446;8.576;2023-03-01T12:14:28;180.00;;;146.30;;
38226;SDS011;24026;49.446;8.576;2023-03-01T12:16:59;180.45;;;146.05;;
38226;SDS011;24026;49.446;8.576;2023-03-01T12:19:41;170.38;;;145.25;;
38226;SDS011;24026;49.446;8.576;2023-03-01T12:22:31;178.65;;;144.45;;
38226;SDS011;24026;49.446;8.576;2023-03-01T12:32:49;169.93;;;145.95;;
38226;SDS011;24026;49.446;8.576;2023-03-01T12:38:11;164.68;;;145.18;;
38226;SDS011;24026;49.446;8.576;2023-03-01T12:43:28;170.30;;;144.20;;
38226;SDS011;24026;49.446;8.576;2023-03-01T12:48:27;171.73;;;144.82;;
38226;SDS011;24026;49.446;8.576;2023-03-01T12:50:57;167.13;;;143.88;;
38226;SDS011;24026;49.446;8.576;2023-03-01T12:55:44;160.45;;;142.75;;
38226;SDS011;24026;49.446;8.576;2023-03-01T12:58:07;165.30;;;143.57;;
38226;SDS011;24026;49.446;8.576;2023-03-01T13:01:07;160.77;;;142.65;;
38226;SDS011;24026;49.446;8.576;2023-03-01T13:06:15;163.38;;;142.30;;
38226;SDS011;24026;49.446;8.576;2023-03-01T13:08:44;161.68;;;142.23;;
38226;SDS011;24026;49.446;8.576;2023-03-01T13:11:17;158.85;;;141.27;;
38226;SDS011;24026;49.446;8.576;2023-03-01T13:13:40;164.48;;;142.73;;
38226;SDS011;24026;49.446;8.576;2023-03-01T13:18:49;158.15;;;140.82;;
38226;SDS011;24026;49.446;8.576;2023-03-01T13:21:09;158.27;;;140.95;;
38226;SDS011;24026;49.446;8.576;2023-03-01T13:23:31;159.50;;;142.20;;
38226;SDS011;24026;49.446;8.576;2023-03-01T13:26:08;158.20;;;141.07;;
38226;SDS011;24026;49.446;8.576;2023-03-01T13:30:54;160.25;;;142.73;;
38226;SDS011;24026;49.446;8.576;2023-03-01T13:35:47;168.43;;;150.13;;
38226;SDS011;24026;49.446;8.576;2023-03-01T13:41:07;166.20;;;148.45;;
38226;SDS011;24026;49.446;8.576;2023-03-01T13:43:37;167.70;;;149.57;;
38226;SDS011;24026;49.446;8.576;2023-03-01T13:46:00;169.45;;;151.05;;
38226;SDS011;24026;49.446;8.576;2023-03-01T13:48:29;168.10;;;150.32;;
38226;SDS011;24026;49.446;8.576;2023-03-01T13:50:53;166.18;;;148.32;;
38226;SDS011;24026;49.446;8.576;2023-03-01T13:53:19;166.02;;;148.88;;
38226;SDS011;24026;49.446;8.576;2023-03-01T13:55:44;166.68;;;148.88;;
38226;SDS011;24026;49.446;8.576;2023-03-01T13:58:22;167.27;;;149.70;;
38226;SDS011;24026;49.446;8.576;2023-03-01T14:03:18;168.48;;;150.60;;
38226;SDS011;24026;49.446;8.576;2023-03-01T14:05:40;168.60;;;151.15;;
38226;SDS011;24026;49.446;8.576;2023-03-01T14:08:03;168.93;;;151.18;;
38226;SDS011;24026;49.446;8.576;2023-03-01T14:10:30;168.23;;;151.32;;
38226;SDS011;24026;49.446;8.576;2023-03-01T14:13:17;171.55;;;153.52;;
38226;SDS011;24026;49.446;8.576;2023-03-01T14:15:53;169.57;;;152.35;;
38226;SDS011;24026;49.446;8.576;2023-03-01T14:18:29;170.80;;;152.98;;
38226;SDS011;24026;49.446;8.576;2023-03-01T14:21:13;168.77;;;151.93;;
38226;SDS011;24026;49.446;8.576;2023-03-01T14:23:37;166.68;;;150.27;;
38226;SDS011;24026;49.446;8.576;2023-03-01T14:25:59;168.77;;;151.57;;
38226;SDS011;24026;49.446;8.576;2023-03-01T14:35:41;165.15;;;148.10;;
38226;SDS011;24026;49.446;8.576;2023-03-01T14:38:01;164.95;;;147.73;;
38226;SDS011;24026;49.446;8.576;2023-03-01T14:40:25;164.45;;;147.63;;
38226;SDS011;24026;49.446;8.576;2023-03-01T14:42:47;164.05;;;146.73;;
38226;SDS011;24026;49.446;8.576;2023-03-01T14:45:09;162.07;;;145.23;;
38226;SDS011;24026;49.446;8.576;2023-03-01T14:47:33;161.05;;;144.50;;
38226;SDS011;24026;49.446;8.576;2023-03-01T14:49:59;159.55;;;143.15;;
38226;SDS011;24026;49.446;8.576;2023-03-01T14:52:31;163.48;;;146.55;;
38226;SDS011;24026;49.446;8.576;2023-03-01T14:55:00;160.60;;;144.07;;
38226;SDS011;24026;49.446;8.576;2023-03-01T14:57:23;162.75;;;145.52;;
38226;SDS011;24026;49.446;8.576;2023-03-01T14:59:45;161.30;;;144.43;;
38226;SDS011;24026;49.446;8.576;2023-03-01T15:02:08;161.10;;;144.23;;
38226;SDS011;24026;49.446;8.576;2023-03-01T15:04:37;158.95;;;142.68;;
38226;SDS011;24026;49.446;8.576;2023-03-01T15:06:58;159.43;;;143.32;;